Time,TemperatureF,DewpointF,PressureIn,WindDirection,WindDirectionDegrees,WindSpeedMPH,WindSpeedGustMPH,Humidity,HourlyPrecipIn,Conditions,Clouds,dailyrainin,SoftwareType,DateUTC
2013-10-09 00:00:00,52.9,40.0,30.18,ESE,103,0.0,-999.0,63,-99.99,,,0.00,weatherlink.com 1.10,2013-10-09 04:00:00,
2013-10-09 00:15:00,53.3,40.0,30.17,SE,138,0.0,-999.0,61,-99.99,,,0.00,weatherlink.com 1.10,2013-10-09 04:15:00,
2013-10-09 00:30:00,53.9,40.0,30.17,SSW,210,0.0,-999.0,60,-99.99,,,0.00,weatherlink.com 1.10,2013-10-09 04:30:00,
2013-10-09 00:45:00,52.6,42.0,30.16,SE,144,0.0,-999.0,67,-99.99,,,0.00,weatherlink.com 1.10,2013-10-09 04:45:00,
2013-10-09 01:00:00,51.4,42.0,30.16,SSE,160,0.0,-999.0,69,-99.99,,,0.00,weatherlink.com 1.10,2013-10-09 05:00:00,
2013-10-09 01:15:00,50.1,41.0,30.17,SSE,160,0.0,-999.0,71,-99.99,,,0.00,weatherlink.com 1.10,2013-10-09 05:15:00,
2013-10-09 01:30:00,49.2,42.0,30.16,SSE,157,0.0,-999.0,76,-99.99,,,0.00,weatherlink.com 1.10,2013-10-09 05:30:00,
2013-10-09 01:45:00,50.1,41.0,30.16,SE,128,0.0,-999.0,72,-99.99,,,0.00,weatherlink.com 1.10,2013-10-09 05:45:00,
2013-10-09 02:00:00,49.2,42.0,30.16,SE,128,0.0,-999.0,76,-99.99,,,0.00,weatherlink.com 1.10,2013-10-09 06:00:00,
2013-10-09 02:15:00,48.3,41.0,30.16,SE,128,0.0,-999.0,77,-99.99,,,0.00,weatherlink.com 1.10,2013-10-09 06:15:00,
2013-10-09 02:30:00,48.8,41.0,30.16,SSE,150,0.0,-999.0,75,-99.99,,,0.00,weatherlink.com 1.10,2013-10-09 06:30:00,
2013-10-09 02:45:00,49.2,42.0,30.16,SSE,148,0.0,-999.0,76,-99.99,,,0.00,weatherlink.com 1.10,2013-10-09 06:45:00,
2013-10-09 03:00:00,47.7,42.0,30.16,SSE,148,0.0,-999.0,80,-99.99,,,0.00,weatherlink.com 1.10,2013-10-09 07:00:00,
2013-10-09 03:15:00,47.4,42.0,30.16,SSE,148,0.0,-999.0,80,-99.99,,,0.00,weatherlink.com 1.10,2013-10-09 07:15:00,
2013-10-09 03:30:00,48.2,42.0,30.16,SSE,148,0.0,-999.0,78,-99.99,,,0.00,weatherlink.com 1.10,2013-10-09 07:30:00,
2013-10-09 03:45:00,47.9,41.0,30.15,SSE,148,0.0,-999.0,77,-99.99,,,0.00,weatherlink.com 1.10,2013-10-09 07:45:00,
2013-10-09 04:00:00,47.9,41.0,30.15,SSE,148,0.0,-999.0,77,-99.99,,,0.00,weatherlink.com 1.10,2013-10-09 08:00:00,
2013-10-09 04:15:00,47.4,41.0,30.15,SSE,148,0.0,-999.0,78,-99.99,,,0.00,weatherlink.com 1.10,2013-10-09 08:15:00,
2013-10-09 04:30:00,46.8,41.0,30.14,SE,143,0.0,-999.0,80,-99.99,,,0.00,weatherlink.com 1.10,2013-10-09 08:30:00,
2013-10-09 04:45:00,47.3,41.0,30.14,SE,126,0.0,-999.0,78,-99.99,,,0.00,weatherlink.com 1.10,2013-10-09 08:45:00,
2013-10-09 05:00:00,47.6,41.0,30.14,SE,128,0.0,-999.0,78,-99.99,,,0.00,weatherlink.com 1.10,2013-10-09 09:00:00,
2013-10-09 05:15:00,47.1,41.0,30.15,SSE,147,0.0,-999.0,80,-99.99,,,0.00,weatherlink.com 1.10,2013-10-09 09:15:00,
2013-10-09 05:30:00,48.8,41.0,30.16,SSE,155,2.0,-999.0,75,-99.99,,,0.00,weatherlink.com 1.10,2013-10-09 09:30:00,
2013-10-09 05:45:00,48.3,41.0,30.16,ESE,109,0.0,-999.0,76,-99.99,,,0.00,weatherlink.com 1.10,2013-10-09 09:45:00,
2013-10-09 06:00:00,48.2,41.0,30.17,ESE,114,0.0,-999.0,76,-99.99,,,0.00,weatherlink.com 1.10,2013-10-09 10:00:00,
2013-10-09 06:15:00,47.7,41.0,30.18,ESE,113,0.0,-999.0,78,-99.99,,,0.00,weatherlink.com 1.10,2013-10-09 10:15:00,
2013-10-09 06:30:00,47.1,41.0,30.18,ESE,113,0.0,-999.0,79,-99.99,,,0.00,weatherlink.com 1.10,2013-10-09 10:30:00,
2013-10-09 06:46:00,48.0,41.0,30.17,ESE,114,0.0,-999.0,76,-99.99,,,0.00,weatherlink.com 1.10,2013-10-09 10:46:00,
2013-10-09 07:01:00,48.6,41.0,30.16,ESE,113,0.0,-999.0,75,-99.99,,,0.00,weatherlink.com 1.10,2013-10-09 11:01:00,
2013-10-09 07:16:00,48.8,41.0,30.17,SSE,151,2.0,-999.0,74,-99.99,,,0.00,weatherlink.com 1.10,2013-10-09 11:16:00,
2013-10-09 07:31:00,48.8,41.0,30.17,SE,145,0.0,-999.0,75,-99.99,,,0.00,weatherlink.com 1.10,2013-10-09 11:31:00,
2013-10-09 07:46:00,48.2,41.0,30.18,SE,143,1.0,-999.0,77,-99.99,,,0.00,weatherlink.com 1.10,2013-10-09 11:46:00,
2013-10-09 08:01:00,49.6,41.0,30.18,SSE,147,0.0,-999.0,71,-99.99,,,0.00,weatherlink.com 1.10,2013-10-09 12:01:00,
2013-10-09 08:16:00,50.1,41.0,30.19,SE,143,0.0,-999.0,72,-99.99,,,0.00,weatherlink.com 1.10,2013-10-09 12:16:00,
2013-10-09 08:31:00,49.9,41.0,30.19,East,96,0.0,-999.0,71,-99.99,,,0.00,weatherlink.com 1.10,2013-10-09 12:31:00,
2013-10-09 08:46:00,51.3,41.0,30.20,SE,140,0.0,-999.0,68,-99.99,,,0.00,weatherlink.com 1.10,2013-10-09 12:46:00,
2013-10-09 09:01:00,49.8,42.0,30.21,SE,141,0.0,-999.0,75,-99.99,,,0.00,weatherlink.com 1.10,2013-10-09 13:01:00,
2013-10-09 09:16:00,50.2,41.0,30.22,SE,145,0.0,-999.0,72,-99.99,,,0.00,weatherlink.com 1.10,2013-10-09 13:16:00,
2013-10-09 09:31:00,52.0,41.0,30.20,East,100,0.0,-999.0,66,-99.99,,,0.00,weatherlink.com 1.10,2013-10-09 13:31:00,
2013-10-09 09:46:00,52.5,41.0,30.20,NW,326,0.0,-999.0,64,-99.99,,,0.00,weatherlink.com 1.10,2013-10-09 13:46:00,
2013-10-09 10:01:00,52.8,43.0,30.21,NW,326,0.0,-999.0,69,-99.99,,,0.00,weatherlink.com 1.10,2013-10-09 14:01:00,
2013-10-09 10:16:00,54.1,42.0,30.21,NW,311,2.0,-999.0,64,-99.99,,,0.00,weatherlink.com 1.10,2013-10-09 14:16:00,
2013-10-09 10:31:00,55.6,42.0,30.21,NW,311,0.0,-999.0,60,-99.99,,,0.00,weatherlink.com 1.10,2013-10-09 14:31:00,
2013-10-09 10:46:00,57.3,43.0,30.21,West,274,0.0,-999.0,59,-99.99,,,0.00,weatherlink.com 1.10,2013-10-09 14:46:00,
2013-10-09 11:01:00,59.3,43.0,30.20,SE,136,0.0,-999.0,56,-99.99,,,0.00,weatherlink.com 1.10,2013-10-09 15:01:00,
2013-10-09 11:16:00,60.9,43.0,30.20,ESE,121,0.0,-999.0,53,-99.99,,,0.00,weatherlink.com 1.10,2013-10-09 15:16:00,
2013-10-09 11:31:00,61.5,42.0,30.20,SE,138,0.0,-999.0,49,-99.99,,,0.00,weatherlink.com 1.10,2013-10-09 15:31:00,
2013-10-09 11:46:00,62.3,42.0,30.20,ENE,76,0.0,-999.0,47,-99.99,,,0.00,weatherlink.com 1.10,2013-10-09 15:46:00,
2013-10-09 12:01:00,61.5,40.0,30.19,West,274,0.0,-999.0,46,-99.99,,,0.00,weatherlink.com 1.10,2013-10-09 16:01:00,
2013-10-09 12:16:00,60.9,42.0,30.20,West,274,0.0,-999.0,50,-99.99,,,0.00,weatherlink.com 1.10,2013-10-09 16:16:00,
2013-10-09 12:31:00,62.0,43.0,30.19,West,274,0.0,-999.0,50,-99.99,,,0.00,weatherlink.com 1.10,2013-10-09 16:31:00,
2013-10-09 12:46:00,64.3,35.0,30.19,ESE,120,1.0,-999.0,34,-99.99,,,0.00,weatherlink.com 1.10,2013-10-09 16:46:00,
2013-10-09 13:01:00,64.7,38.0,30.18,SE,144,0.0,-999.0,37,-99.99,,,0.00,weatherlink.com 1.10,2013-10-09 17:01:00,
2013-10-09 13:16:00,66.0,35.0,30.18,South,171,0.0,-999.0,32,-99.99,,,0.00,weatherlink.com 1.10,2013-10-09 17:16:00,
2013-10-09 13:31:00,66.4,36.0,30.18,ESE,112,0.0,-999.0,32,-99.99,,,0.00,weatherlink.com 1.10,2013-10-09 17:31:00,
2013-10-09 13:46:00,66.1,35.0,30.17,ESE,123,3.0,-999.0,32,-99.99,,,0.00,weatherlink.com 1.10,2013-10-09 17:46:00,
2013-10-09 14:01:00,66.4,36.0,30.17,WNW,285,0.0,-999.0,32,-99.99,,,0.00,weatherlink.com 1.10,2013-10-09 18:01:00,
2013-10-09 14:17:00,66.3,35.0,30.16,ESE,123,0.0,-999.0,31,-99.99,,,0.00,weatherlink.com 1.10,2013-10-09 18:17:00,
2013-10-09 14:32:00,66.6,39.0,30.16,SE,133,0.0,-999.0,37,-99.99,,,0.00,weatherlink.com 1.10,2013-10-09 18:32:00,
2013-10-09 14:47:00,66.8,37.0,30.15,ESE,116,0.0,-999.0,34,-99.99,,,0.00,weatherlink.com 1.10,2013-10-09 18:47:00,
2013-10-09 15:02:00,66.4,34.0,30.16,SE,136,0.0,-999.0,30,-99.99,,,0.00,weatherlink.com 1.10,2013-10-09 19:02:00,
2013-10-09 15:17:00,66.9,33.0,30.15,SE,144,0.0,-999.0,28,-99.99,,,0.00,weatherlink.com 1.10,2013-10-09 19:17:00,
2013-10-09 15:32:00,66.6,33.0,30.16,SSE,162,0.0,-999.0,29,-99.99,,,0.00,weatherlink.com 1.10,2013-10-09 19:32:00,
2013-10-09 15:47:00,65.5,32.0,30.15,SSE,158,0.0,-999.0,29,-99.99,,,0.00,weatherlink.com 1.10,2013-10-09 19:47:00,
2013-10-09 16:02:00,65.6,35.0,30.15,SSE,160,0.0,-999.0,32,-99.99,,,0.00,weatherlink.com 1.10,2013-10-09 20:02:00,
2013-10-09 16:17:00,64.8,40.0,30.15,SE,143,0.0,-999.0,40,-99.99,,,0.00,weatherlink.com 1.10,2013-10-09 20:17:00,
2013-10-09 16:32:00,64.5,37.0,30.14,SE,131,0.0,-999.0,37,-99.99,,,0.00,weatherlink.com 1.10,2013-10-09 20:32:00,
2013-10-09 16:47:00,63.2,33.0,30.15,ESE,110,0.0,-999.0,32,-99.99,,,0.00,weatherlink.com 1.10,2013-10-09 20:47:00,
2013-10-09 17:02:00,62.3,33.0,30.15,ESE,110,0.0,-999.0,33,-99.99,,,0.00,weatherlink.com 1.10,2013-10-09 21:02:00,
2013-10-09 17:17:00,61.5,35.0,30.14,ESE,110,0.0,-999.0,38,-99.99,,,0.00,weatherlink.com 1.10,2013-10-09 21:17:00,
2013-10-09 17:32:00,60.2,40.0,30.15,ESE,110,0.0,-999.0,48,-99.99,,,0.00,weatherlink.com 1.10,2013-10-09 21:32:00,
2013-10-09 17:47:00,59.0,43.0,30.15,ESE,110,0.0,-999.0,55,-99.99,,,0.00,weatherlink.com 1.10,2013-10-09 21:47:00,
2013-10-09 18:02:00,58.0,40.0,30.15,ESE,110,0.0,-999.0,52,-99.99,,,0.00,weatherlink.com 1.10,2013-10-09 22:02:00,
2013-10-09 18:17:00,56.9,40.0,30.16,ESE,110,0.0,-999.0,54,-99.99,,,0.00,weatherlink.com 1.10,2013-10-09 22:17:00,
2013-10-09 18:32:00,56.3,42.0,30.16,ESE,110,0.0,-999.0,59,-99.99,,,0.00,weatherlink.com 1.10,2013-10-09 22:32:00,
2013-10-09 18:47:00,55.9,40.0,30.16,ESE,109,0.0,-999.0,55,-99.99,,,0.00,weatherlink.com 1.10,2013-10-09 22:47:00,
2013-10-09 19:02:00,55.7,40.0,30.16,ESE,109,0.0,-999.0,56,-99.99,,,0.00,weatherlink.com 1.10,2013-10-09 23:02:00,
2013-10-09 19:17:00,55.9,41.0,30.16,ESE,109,0.0,-999.0,58,-99.99,,,0.00,weatherlink.com 1.10,2013-10-09 23:17:00,
2013-10-09 19:32:00,55.4,40.0,30.16,ESE,109,0.0,-999.0,57,-99.99,,,0.00,weatherlink.com 1.10,2013-10-09 23:32:00,
2013-10-09 19:47:00,55.1,40.0,30.16,ESE,109,0.0,-999.0,58,-99.99,,,0.00,weatherlink.com 1.10,2013-10-09 23:47:00,
2013-10-09 20:02:00,55.7,40.0,30.15,ESE,110,0.0,-999.0,57,-99.99,,,0.00,weatherlink.com 1.10,2013-10-10 00:02:00,
2013-10-09 20:17:00,55.6,42.0,30.15,ESE,110,0.0,-999.0,61,-99.99,,,0.00,weatherlink.com 1.10,2013-10-10 00:17:00,
2013-10-09 20:32:00,55.4,42.0,30.16,SSW,210,0.0,-999.0,60,-99.99,,,0.00,weatherlink.com 1.10,2013-10-10 00:32:00,
2013-10-09 20:47:00,55.0,41.0,30.16,SSW,210,0.0,-999.0,60,-99.99,,,0.00,weatherlink.com 1.10,2013-10-10 00:47:00,
2013-10-09 21:02:00,54.4,42.0,30.16,SSW,210,0.0,-999.0,63,-99.99,,,0.00,weatherlink.com 1.10,2013-10-10 01:02:00,
2013-10-09 21:17:00,53.9,41.0,30.15,SSW,206,0.0,-999.0,63,-99.99,,,0.00,weatherlink.com 1.10,2013-10-10 01:17:00,
2013-10-09 21:32:00,53.6,42.0,30.15,SSW,206,0.0,-999.0,65,-99.99,,,0.00,weatherlink.com 1.10,2013-10-10 01:32:00,
2013-10-09 21:47:00,53.3,43.0,30.15,SSW,206,0.0,-999.0,67,-99.99,,,0.00,weatherlink.com 1.10,2013-10-10 01:47:00,
2013-10-09 22:02:00,53.9,41.0,30.15,South,188,0.0,-999.0,63,-99.99,,,0.00,weatherlink.com 1.10,2013-10-10 02:02:00,
2013-10-09 22:17:00,54.4,42.0,30.14,SE,131,0.0,-999.0,63,-99.99,,,0.00,weatherlink.com 1.10,2013-10-10 02:17:00,
2013-10-09 22:32:00,54.1,42.0,30.13,South,191,0.0,-999.0,63,-99.99,,,0.00,weatherlink.com 1.10,2013-10-10 02:32:00,
2013-10-09 22:47:00,54.1,41.0,30.13,WNW,292,0.0,-999.0,61,-99.99,,,0.00,weatherlink.com 1.10,2013-10-10 02:47:00,
2013-10-09 23:02:00,54.2,39.0,30.13,SSE,158,0.0,-999.0,58,-99.99,,,0.00,weatherlink.com 1.10,2013-10-10 03:02:00,
2013-10-09 23:17:00,54.4,38.0,30.12,SW,229,0.0,-999.0,55,-99.99,,,0.00,weatherlink.com 1.10,2013-10-10 03:17:00,
2013-10-09 23:32:00,54.2,38.0,30.11,SSE,151,1.0,-999.0,55,-99.99,,,0.00,weatherlink.com 1.10,2013-10-10 03:32:00,
2013-10-09 23:47:00,54.1,38.0,30.11,ESE,120,0.0,-999.0,55,-99.99,,,0.00,weatherlink.com 1.10,2013-10-10 03:47:00,